Terminal Aerodrome Forecast
Issued by NWS Twin Cities, MN

Home | Current Version | Previous Version | Graphics & Text | Print | Product List | Glossary On
Versions: 1 2 3 4 5 6 7 8 9 10 11 12 13 14 15
267
FTUS43 KMPX 172112 AAA
TAFEAU
TAF AMD
KEAU 172112Z 1721/1818 36008KT P6SM SCT050
     FM172300 02006KT P6SM SCT060
     FM180500 05006KT P6SM BKN050
     FM181300 06006KT P6SM BKN020
     FM181600 05007KT P6SM BKN015=

USA.gov is the U.S. government's official web portal to all federal, state and local government web resources and services.